Aérodrome :
LOGIN :

S'inscrire | Disclaimer

   EN    FR    IT 

 










Légende :    VFR   VFR Marginal   IFR   IFR Intensif   IFR Très Intensif
Visi : 
Plafond : 
>= 8 km
>= 3000ft
5 à 8 km
1000 à 3000 ft
1500m à 5 km
500 à 1000 ft
800 à 1500m
200 à 500 ft
< 800m
< 200 ft
Symboles :   Orages  Brouillard  Fortes neiges  Fortes précipitations  Vent > 20 kt
SIGMETs :   Divers  Orages  Givrage  Turbulence  Onde Orograph.  Cendres Volcan.







- Altitude de l'aérodrome : -11 ft
- Code IATA : AMS


EHAM - Amsterdam Schiphol

DERNIER METAR :
  • 170055Z 31005KT CAVOK 16/14 Q1014 NOSIG

METARs EXPIRÉS :
  • 170025Z 25005KT 9999 FEW018 17/15 Q1015 NOSIG
  • 162355Z 23005KT 9999 FEW018 17/15 Q1015 NOSIG
  • 162325Z 20005KT 9999 FEW018 17/16 Q1015 NOSIG
  • 162255Z 21007KT 9999 -RA FEW020 17/15 Q1015 NOSIG
  • 162225Z 19006KT 9999 -RA FEW020 17/16 Q1015 NOSIG

TAF TAF EHAM
Valide du 17 à 00h jusqu'au 18 à 06h UTC


162301Z 1700/1806 22006KT 9999 RA FEW020 BKN035
BECMG 1701/1704 27008KT NSW SCT020
BECMG 1718/1721 19005KT
Pas de NOTAMs connus pour ce terrain.



MET'MAP, la Météo Aéronautique d'un coup d'oeil ! - Copyright ORBIFLY Décembre 2007 - Disclaimer

ORBIFLY MET'MAP TEAM :

Programmation & Développement : Alexandra Zaïnal
Conception & Développement : Baudouin d'Aumeries
Co-Programmation & Développement : Marc-Olivier Méhu
Soutien technique & logistique : Manuel Goepfert

Contact : metmap@orbifly.com




SOURCES & CREDITS :

   NOAA